createdAt,value
2022-09-12T00:00:15.874Z,15.10
2022-09-12T00:02:42.823Z,15.10
2022-09-12T00:05:09.895Z,15.00
2022-09-12T00:07:36.822Z,14.90
2022-09-12T00:10:04.236Z,14.90
2022-09-12T00:12:31.226Z,14.90
2022-09-12T00:14:58.240Z,14.80
2022-09-12T00:17:25.164Z,14.80
2022-09-12T00:19:52.305Z,14.80
2022-09-12T00:22:19.185Z,14.70
2022-09-12T00:24:46.083Z,14.70
2022-09-12T00:27:13.412Z,14.70
2022-09-12T00:29:40.302Z,14.60
2022-09-12T00:32:07.187Z,14.60
2022-09-12T00:34:34.110Z,14.50
2022-09-12T00:37:01.015Z,14.50
2022-09-12T00:39:28.139Z,14.40
2022-09-12T00:41:55.095Z,14.40
2022-09-12T00:44:21.937Z,14.40
2022-09-12T00:46:51.268Z,14.40
2022-09-12T00:49:52.465Z,14.40
2022-09-12T00:52:28.363Z,14.50
2022-09-12T00:55:01.514Z,14.50
2022-09-12T00:57:53.842Z,14.50
2022-09-12T01:00:23.406Z,14.50
2022-09-12T01:02:57.307Z,14.50
2022-09-12T01:05:26.133Z,14.40
2022-09-12T01:07:53.254Z,14.40
2022-09-12T01:10:20.427Z,14.30
2022-09-12T01:12:48.826Z,14.30
2022-09-12T01:15:15.800Z,14.20
2022-09-12T01:17:51.746Z,14.20
2022-09-12T01:20:56.099Z,14.10
2022-09-12T01:23:41.454Z,14.10
2022-09-12T01:26:30.585Z,14.10
2022-09-12T01:29:14.362Z,14.00
2022-09-12T01:32:10.740Z,14.10
2022-09-12T01:34:52.424Z,14.00
2022-09-12T01:37:49.661Z,14.00
2022-09-12T01:40:25.380Z,13.90
2022-09-12T01:42:53.027Z,13.90
2022-09-12T01:45:43.686Z,13.90
2022-09-12T01:48:24.701Z,13.80
2022-09-12T01:51:13.893Z,13.80
2022-09-12T01:53:51.129Z,13.80
2022-09-12T01:56:29.812Z,13.90
2022-09-12T01:59:01.378Z,14.10
2022-09-12T02:01:32.008Z,14.00
2022-09-12T02:04:09.422Z,14.00
2022-09-12T02:06:44.214Z,13.90
2022-09-12T02:09:18.426Z,13.80
2022-09-12T02:11:46.448Z,13.80
2022-09-12T02:14:21.764Z,13.70
2022-09-12T02:16:54.608Z,13.80
2022-09-12T02:19:23.541Z,13.90
2022-09-12T02:22:02.785Z,13.90
2022-09-12T02:24:34.030Z,13.90
2022-09-12T02:27:06.153Z,14.00
2022-09-12T02:29:33.126Z,14.00
2022-09-12T02:32:06.049Z,14.00
2022-09-12T02:34:46.392Z,13.90
2022-09-12T02:37:19.257Z,13.90
2022-09-12T02:39:47.042Z,13.90
2022-09-12T02:42:14.220Z,14.00
2022-09-12T02:44:41.782Z,14.00
2022-09-12T02:47:18.572Z,14.00
2022-09-12T02:49:46.617Z,13.90
2022-09-12T02:52:13.491Z,13.90
2022-09-12T02:54:41.192Z,13.90
2022-09-12T02:57:23.112Z,13.80
2022-09-12T02:59:53.273Z,13.80
2022-09-12T03:02:48.767Z,13.70
2022-09-12T03:05:47.319Z,13.70
2022-09-12T03:08:33.040Z,13.60
2022-09-12T03:11:34.333Z,13.60
2022-09-12T03:14:27.871Z,13.60
2022-09-12T03:17:07.400Z,13.60
2022-09-12T03:19:48.669Z,13.50
2022-09-12T03:22:21.522Z,13.50
2022-09-12T03:24:51.329Z,13.60
2022-09-12T03:27:21.097Z,13.50
2022-09-12T03:29:48.959Z,13.50
2022-09-12T03:32:15.995Z,13.50
2022-09-12T03:34:42.917Z,13.40
2022-09-12T03:37:09.982Z,13.30
2022-09-12T03:39:36.868Z,13.30
2022-09-12T03:42:03.886Z,13.20
2022-09-12T03:44:30.797Z,13.20
2022-09-12T03:46:57.706Z,13.20
2022-09-12T03:49:24.682Z,13.20
2022-09-12T03:51:51.573Z,13.20
2022-09-12T03:54:18.555Z,13.20
2022-09-12T03:56:45.489Z,13.20
2022-09-12T03:59:12.344Z,13.20
2022-09-12T04:01:39.305Z,13.20
2022-09-12T04:04:06.219Z,13.20
2022-09-12T04:06:33.102Z,13.10
2022-09-12T04:09:00.051Z,13.20
2022-09-12T04:11:26.965Z,13.20
2022-09-12T04:13:54.277Z,13.20
2022-09-12T04:16:21.439Z,13.30
2022-09-12T04:18:48.538Z,13.40
2022-09-12T04:21:18.786Z,13.40
2022-09-12T04:23:46.194Z,13.30
2022-09-12T04:26:13.964Z,13.30
2022-09-12T04:28:41.965Z,13.30
2022-09-12T04:31:15.792Z,13.30
2022-09-12T04:33:42.841Z,13.30
2022-09-12T04:36:12.577Z,13.40
2022-09-12T04:38:39.557Z,13.40
2022-09-12T04:41:18.815Z,13.40
2022-09-12T04:43:46.760Z,13.40
2022-09-12T04:46:15.428Z,13.40
2022-09-12T04:48:43.439Z,13.50
2022-09-12T04:51:14.236Z,13.50
2022-09-12T04:53:42.381Z,13.60
2022-09-12T04:56:11.546Z,13.70
2022-09-12T04:58:39.083Z,13.80
2022-09-12T05:01:11.784Z,13.80
2022-09-12T05:03:39.898Z,13.90
2022-09-12T05:06:09.818Z,14.00
2022-09-12T05:08:37.002Z,14.00
2022-09-12T05:11:12.188Z,14.10
2022-09-12T05:13:40.312Z,14.30
2022-09-12T05:16:10.013Z,14.40
2022-09-12T05:18:37.556Z,14.40
2022-09-12T05:21:07.247Z,14.50
2022-09-12T05:23:34.886Z,14.70
2022-09-12T05:26:02.753Z,14.80
2022-09-12T05:28:37.855Z,15.00
2022-09-12T05:31:06.242Z,15.10
2022-09-12T05:33:34.953Z,15.20
2022-09-12T05:36:03.352Z,15.30
2022-09-12T05:38:30.293Z,15.30
2022-09-12T05:41:18.219Z,15.40
2022-09-12T05:43:47.711Z,15.50
2022-09-12T05:46:17.323Z,15.50
2022-09-12T05:48:46.153Z,15.70
2022-09-12T05:51:36.873Z,15.80
2022-09-12T05:54:04.811Z,15.90
2022-09-12T05:56:34.771Z,16.10
2022-09-12T05:59:04.690Z,16.10
2022-09-12T06:01:33.490Z,16.30
2022-09-12T06:04:02.340Z,16.30
2022-09-12T06:06:30.915Z,16.30
2022-09-12T06:09:02.000Z,16.50
2022-09-12T06:11:31.193Z,16.60
2022-09-12T06:13:59.253Z,16.70
2022-09-12T06:16:31.728Z,16.80
2022-09-12T06:19:01.069Z,16.80
2022-09-12T06:21:29.049Z,16.90
2022-09-12T06:23:56.492Z,16.90
2022-09-12T06:26:26.364Z,17.10
2022-09-12T06:28:55.237Z,17.00
2022-09-12T06:31:31.862Z,17.10
2022-09-12T06:34:01.839Z,17.30
2022-09-12T06:36:31.860Z,17.30
2022-09-12T06:39:05.376Z,17.30
2022-09-12T06:41:33.380Z,17.30
2022-09-12T06:44:01.330Z,17.50
2022-09-12T06:46:28.903Z,17.90
2022-09-12T06:49:00.679Z,18.00
2022-09-12T06:51:29.465Z,18.30
2022-09-12T06:53:57.539Z,18.50
2022-09-12T06:56:26.862Z,18.50
2022-09-12T06:58:56.147Z,18.60
2022-09-12T07:01:31.403Z,18.60
2022-09-12T07:04:00.789Z,18.80
2022-09-12T07:06:32.114Z,18.80
2022-09-12T07:09:00.341Z,18.90
2022-09-12T07:11:30.740Z,19.10
2022-09-12T07:14:00.105Z,19.20
2022-09-12T07:16:27.354Z,19.30
2022-09-12T07:18:59.449Z,19.50
2022-09-12T07:21:27.257Z,19.60
2022-09-12T07:23:57.109Z,19.70
2022-09-12T07:26:29.083Z,19.70
2022-09-12T07:29:12.839Z,19.80
2022-09-12T07:31:45.155Z,20.00
2022-09-12T07:34:12.231Z,20.10
2022-09-12T07:36:39.375Z,20.10
2022-09-12T07:39:06.357Z,20.20
2022-09-12T07:41:36.290Z,20.30
2022-09-12T07:44:06.717Z,20.40
2022-09-12T07:46:34.227Z,20.50
2022-09-12T07:49:02.312Z,20.50
2022-09-12T07:51:30.474Z,20.60
2022-09-12T07:53:58.184Z,20.70
2022-09-12T07:56:30.166Z,20.70
2022-09-12T07:58:59.116Z,20.60
2022-09-12T08:01:26.771Z,20.70
2022-09-12T08:03:56.997Z,20.70
2022-09-12T08:06:25.272Z,20.70
2022-09-12T08:08:54.622Z,20.80
2022-09-12T08:11:23.796Z,20.40
2022-09-12T08:13:55.324Z,20.20
2022-09-12T08:16:25.281Z,20.20
2022-09-12T08:18:52.242Z,20.50
2022-09-12T08:21:27.028Z,20.70
2022-09-12T08:23:56.507Z,20.70
2022-09-12T08:26:24.841Z,20.90
2022-09-12T08:28:52.136Z,21.00
2022-09-12T08:31:20.714Z,21.20
2022-09-12T08:33:48.144Z,21.40
2022-09-12T08:36:24.540Z,21.30
2022-09-12T08:38:59.307Z,21.30
2022-09-12T08:41:35.336Z,21.10
2022-09-12T08:44:40.004Z,21.30
2022-09-12T08:47:25.180Z,21.20
2022-09-12T08:50:02.834Z,21.40
2022-09-12T08:52:53.173Z,21.50
2022-09-12T08:55:44.805Z,21.40
2022-09-12T08:58:23.947Z,21.60
2022-09-12T09:01:13.081Z,21.90
2022-09-12T09:04:02.122Z,22.00
2022-09-12T09:06:55.190Z,22.20
2022-09-12T09:09:48.339Z,22.40
2022-09-12T09:12:36.872Z,22.40
2022-09-12T09:15:25.135Z,22.40
2022-09-12T09:18:02.151Z,22.70
2022-09-12T09:20:32.030Z,23.00
2022-09-12T09:23:20.924Z,22.80
2022-09-12T09:26:10.603Z,23.10
2022-09-12T09:28:54.517Z,23.30
2022-09-12T09:31:27.287Z,23.30
2022-09-12T09:33:57.814Z,23.40
2022-09-12T09:37:13.906Z,23.10
2022-09-12T09:40:15.931Z,23.30
2022-09-12T09:42:42.933Z,23.10
2022-09-12T09:45:21.054Z,22.90
2022-09-12T09:48:08.349Z,22.60
2022-09-12T09:50:36.104Z,22.40
2022-09-12T09:53:04.438Z,22.30
2022-09-12T09:55:38.599Z,22.20
2022-09-12T09:58:05.749Z,22.20
2022-09-12T10:00:37.882Z,22.50
2022-09-12T10:03:13.809Z,22.60
2022-09-12T10:06:13.071Z,22.70
2022-09-12T10:08:40.675Z,22.80
2022-09-12T10:11:16.958Z,23.00
2022-09-12T10:13:57.135Z,22.80
2022-09-12T10:16:29.024Z,22.60
2022-09-12T10:19:01.779Z,22.70
2022-09-12T10:21:41.325Z,22.70
2022-09-12T10:24:28.394Z,22.90
2022-09-12T10:27:05.834Z,22.60
2022-09-12T10:29:39.595Z,22.90
2022-09-12T10:32:09.276Z,23.00
2022-09-12T10:34:42.735Z,23.10
2022-09-12T10:37:34.433Z,23.40
2022-09-12T10:40:05.837Z,23.40
2022-09-12T10:42:44.147Z,23.60
2022-09-12T10:45:37.974Z,23.80
2022-09-12T10:48:30.377Z,23.80
2022-09-12T10:50:59.326Z,23.30
2022-09-12T10:53:34.127Z,23.40
2022-09-12T10:56:13.601Z,23.50
2022-09-12T10:59:07.498Z,23.60
2022-09-12T11:01:47.318Z,23.30
2022-09-12T11:04:56.203Z,23.40
2022-09-12T11:07:51.070Z,23.10
2022-09-12T11:10:45.700Z,23.20
2022-09-12T11:13:27.575Z,23.60
2022-09-12T11:16:13.271Z,24.20
2022-09-12T11:19:05.083Z,24.20
2022-09-12T11:21:41.482Z,24.00
2022-09-12T11:24:17.516Z,24.00
2022-09-12T11:27:20.490Z,24.10
2022-09-12T11:29:59.749Z,24.10
2022-09-12T11:32:46.163Z,24.20
2022-09-12T11:35:17.585Z,23.90
2022-09-12T11:38:17.512Z,23.80
2022-09-12T11:40:50.109Z,23.90
2022-09-12T11:43:31.420Z,23.50
2022-09-12T11:46:21.955Z,23.50
2022-09-12T11:48:57.529Z,23.60
2022-09-12T11:51:29.021Z,23.70
2022-09-12T11:54:14.059Z,23.50
2022-09-12T11:56:46.141Z,23.60
2022-09-12T11:59:51.680Z,23.60
2022-09-12T12:02:40.006Z,23.50
2022-09-12T12:05:20.598Z,23.40
2022-09-12T12:07:53.919Z,23.10
2022-09-12T12:10:26.725Z,23.00
2022-09-12T12:12:56.262Z,23.10
2022-09-12T12:15:25.837Z,23.40
2022-09-12T12:18:20.429Z,23.60
2022-09-12T12:20:48.241Z,23.80
2022-09-12T12:23:34.437Z,24.00
2022-09-12T12:26:04.289Z,24.50
2022-09-12T12:28:59.241Z,25.00
2022-09-12T12:31:26.544Z,25.40
2022-09-12T12:34:00.700Z,25.50
2022-09-12T12:36:41.447Z,25.30
2022-09-12T12:39:33.095Z,24.90
2022-09-12T12:42:00.764Z,24.70
2022-09-12T12:44:45.833Z,24.60
2022-09-12T12:47:25.783Z,24.70
2022-09-12T12:50:16.028Z,25.00
2022-09-12T12:52:50.628Z,24.70
2022-09-12T12:55:38.963Z,24.40
2022-09-12T12:58:08.023Z,24.20
2022-09-12T13:00:39.783Z,24.20
2022-09-12T13:03:06.984Z,24.40
2022-09-12T13:05:57.651Z,24.20
2022-09-12T13:08:28.859Z,24.40
2022-09-12T13:11:03.185Z,24.30
2022-09-12T13:13:41.204Z,24.30
2022-09-12T13:16:11.112Z,24.20
2022-09-12T13:18:47.678Z,24.20
2022-09-12T13:21:18.580Z,23.90
2022-09-12T13:24:00.741Z,23.60
2022-09-12T13:26:27.860Z,23.40
2022-09-12T13:29:10.251Z,23.20
2022-09-12T13:31:37.912Z,23.00
2022-09-12T13:34:08.437Z,23.10
2022-09-12T13:37:05.146Z,23.00
2022-09-12T13:39:42.743Z,22.80
2022-09-12T13:42:32.365Z,22.80
2022-09-12T13:45:04.893Z,22.70
2022-09-12T13:47:44.576Z,22.70
2022-09-12T13:50:31.933Z,22.70
2022-09-12T13:53:03.933Z,22.70
2022-09-12T13:55:42.607Z,22.70
2022-09-12T13:58:23.062Z,22.60
2022-09-12T14:01:10.043Z,22.60
2022-09-12T14:04:00.952Z,22.50
2022-09-12T14:06:28.515Z,22.60
2022-09-12T14:09:01.580Z,22.70
2022-09-12T14:11:30.802Z,22.80
2022-09-12T14:13:58.378Z,23.00
2022-09-12T14:16:29.162Z,23.10
2022-09-12T14:18:57.333Z,23.30
2022-09-12T14:21:35.017Z,23.40
2022-09-12T14:24:05.153Z,23.40
2022-09-12T14:26:37.650Z,23.50
2022-09-12T14:29:08.942Z,23.50
2022-09-12T14:31:38.549Z,23.50
2022-09-12T14:34:16.315Z,23.60
2022-09-12T14:36:47.846Z,23.60
2022-09-12T14:39:41.552Z,23.30
2022-09-12T14:42:21.344Z,23.00
2022-09-12T14:45:01.907Z,23.20
2022-09-12T14:47:39.506Z,23.40
2022-09-12T14:50:22.027Z,23.50
2022-09-12T14:53:03.089Z,23.50
2022-09-12T14:55:32.230Z,23.60
2022-09-12T14:58:14.772Z,23.60
2022-09-12T15:01:00.401Z,23.50
2022-09-12T15:03:30.355Z,23.60
2022-09-12T15:05:58.367Z,23.50
2022-09-12T15:08:25.663Z,23.50
2022-09-12T15:10:52.835Z,23.40
2022-09-12T15:13:23.162Z,23.30
2022-09-12T15:15:55.935Z,23.30
2022-09-12T15:18:27.825Z,23.40
2022-09-12T15:21:11.975Z,23.40
2022-09-12T15:23:47.160Z,23.40
2022-09-12T15:26:18.489Z,23.30
2022-09-12T15:28:45.756Z,23.30
2022-09-12T15:31:30.525Z,23.30
2022-09-12T15:33:59.294Z,23.30
2022-09-12T15:36:26.717Z,23.20
2022-09-12T15:38:53.843Z,23.10
2022-09-12T15:41:23.947Z,23.10
2022-09-12T15:43:51.361Z,23.00
2022-09-12T15:46:20.388Z,23.00
2022-09-12T15:48:47.414Z,23.00
2022-09-12T15:51:22.215Z,22.90
2022-09-12T15:53:50.969Z,22.90
2022-09-12T15:56:20.310Z,22.90
2022-09-12T15:58:58.343Z,22.80
2022-09-12T16:01:27.904Z,22.80
2022-09-12T16:03:55.115Z,22.70
2022-09-12T16:06:22.606Z,22.60
2022-09-12T16:08:49.722Z,22.50
2022-09-12T16:11:23.073Z,22.50
2022-09-12T16:13:52.065Z,22.40
2022-09-12T16:16:19.054Z,22.30
2022-09-12T16:18:46.135Z,22.20
2022-09-12T16:21:15.568Z,22.20
2022-09-12T16:23:45.967Z,22.00
2022-09-12T16:26:13.495Z,22.00
2022-09-12T16:28:40.831Z,21.80
2022-09-12T16:31:10.853Z,21.80
2022-09-12T16:33:39.182Z,21.60
2022-09-12T16:36:11.545Z,21.50
2022-09-12T16:38:46.714Z,21.30
2022-09-12T16:41:15.978Z,21.20
2022-09-12T16:43:43.577Z,21.00
2022-09-12T16:46:22.411Z,20.90
2022-09-12T16:48:52.612Z,20.70
2022-09-12T16:51:30.850Z,20.60
2022-09-12T16:53:57.980Z,20.40
2022-09-12T16:56:25.559Z,20.20
2022-09-12T16:58:52.786Z,20.10
2022-09-12T17:01:25.551Z,19.90
2022-09-12T17:03:57.783Z,19.80
2022-09-12T17:06:26.114Z,19.60
2022-09-12T17:08:54.849Z,19.40
2022-09-12T17:11:31.039Z,19.30
2022-09-12T17:14:07.324Z,19.20
2022-09-12T17:16:37.472Z,19.00
2022-09-12T17:19:05.590Z,18.90
2022-09-12T17:21:33.147Z,18.80
2022-09-12T17:24:00.172Z,18.70
2022-09-12T17:26:27.483Z,18.50
2022-09-12T17:28:54.403Z,18.40
2022-09-12T17:31:23.117Z,18.40
2022-09-12T17:33:50.128Z,18.30
2022-09-12T17:36:18.222Z,18.20
2022-09-12T17:38:46.531Z,18.10
2022-09-12T17:41:19.145Z,18.00
2022-09-12T17:43:53.196Z,18.00
2022-09-12T17:46:20.802Z,17.90
2022-09-12T17:48:56.486Z,17.80
2022-09-12T17:51:25.974Z,17.70
2022-09-12T17:53:59.282Z,17.60
2022-09-12T17:56:31.807Z,17.60
2022-09-12T17:58:59.691Z,17.50
2022-09-12T18:01:46.560Z,17.40
2022-09-12T18:04:13.807Z,17.40
2022-09-12T18:06:47.862Z,17.30
2022-09-12T18:09:17.810Z,17.30
2022-09-12T18:11:44.940Z,17.20
2022-09-12T18:14:14.171Z,17.10
2022-09-12T18:16:41.792Z,17.10
2022-09-12T18:19:08.899Z,17.00
2022-09-12T18:22:24.408Z,17.00
2022-09-12T18:24:51.486Z,17.00
2022-09-12T18:27:18.355Z,17.00
2022-09-12T18:29:58.934Z,16.90
2022-09-12T18:32:32.139Z,16.80
2022-09-12T18:34:59.044Z,16.80
2022-09-12T18:37:33.152Z,16.80
2022-09-12T18:40:00.488Z,16.70
2022-09-12T18:42:27.580Z,16.70
2022-09-12T18:45:10.969Z,16.70
2022-09-12T18:47:38.024Z,16.70
2022-09-12T18:50:05.620Z,16.60
2022-09-12T18:52:32.487Z,16.50
2022-09-12T18:54:59.444Z,16.50
2022-09-12T18:57:26.399Z,16.50
2022-09-12T18:59:54.494Z,16.40
2022-09-12T19:02:21.422Z,16.30
2022-09-12T19:04:48.505Z,16.40
2022-09-12T19:07:17.178Z,16.30
2022-09-12T19:09:44.717Z,16.30
2022-09-12T19:12:11.726Z,16.20
2022-09-12T19:14:38.731Z,16.20
2022-09-12T19:17:06.076Z,16.10
2022-09-12T19:19:33.029Z,16.10
2022-09-12T19:21:59.956Z,16.10
2022-09-12T19:24:27.148Z,16.10
2022-09-12T19:26:54.045Z,16.10
2022-09-12T19:29:20.977Z,16.00
2022-09-12T19:31:47.913Z,16.00
2022-09-12T19:34:15.498Z,16.00
2022-09-12T19:36:47.148Z,15.90
2022-09-12T19:39:19.895Z,15.90
2022-09-12T19:41:47.558Z,15.80
2022-09-12T19:44:14.856Z,15.80
2022-09-12T19:46:42.067Z,15.70
2022-09-12T19:49:11.382Z,15.70
2022-09-12T19:51:38.264Z,15.70
2022-09-12T19:54:06.459Z,15.60
2022-09-12T19:56:33.361Z,15.60
2022-09-12T19:59:00.334Z,15.50
2022-09-12T20:01:30.741Z,15.60
2022-09-12T20:03:58.973Z,15.60
2022-09-12T20:06:27.106Z,15.50
2022-09-12T20:08:55.035Z,15.50
2022-09-12T20:11:23.720Z,15.50
2022-09-12T20:13:51.310Z,15.40
2022-09-12T20:16:29.172Z,15.30
2022-09-12T20:18:58.976Z,15.30
2022-09-12T20:21:36.913Z,15.30
2022-09-12T20:24:12.083Z,15.30
2022-09-12T20:26:40.010Z,15.30
2022-09-12T20:29:08.450Z,15.30
2022-09-12T20:31:36.976Z,15.20
2022-09-12T20:34:04.720Z,15.20
2022-09-12T20:36:32.063Z,15.20
2022-09-12T20:39:01.375Z,15.10
2022-09-12T20:41:31.082Z,15.10
2022-09-12T20:43:58.539Z,15.10
2022-09-12T20:46:27.214Z,15.10
2022-09-12T20:48:54.716Z,15.00
2022-09-12T20:51:22.724Z,14.90
2022-09-12T20:53:54.334Z,14.90
2022-09-12T20:56:22.135Z,14.80
2022-09-12T20:58:49.183Z,14.80
2022-09-12T21:01:16.865Z,14.70
2022-09-12T21:03:44.806Z,14.70
2022-09-12T21:06:14.372Z,14.70
2022-09-12T21:08:41.333Z,14.70
2022-09-12T21:11:08.558Z,14.70
2022-09-12T21:13:36.575Z,14.70
2022-09-12T21:16:05.000Z,14.70
2022-09-12T21:18:33.381Z,14.70
2022-09-12T21:21:00.588Z,14.60
2022-09-12T21:23:28.297Z,14.60
2022-09-12T21:25:55.407Z,14.60
2022-09-12T21:28:22.381Z,14.50
2022-09-12T21:30:50.110Z,14.50
2022-09-12T21:33:18.339Z,14.40
2022-09-12T21:35:45.922Z,14.40
2022-09-12T21:38:13.061Z,14.40
2022-09-12T21:40:39.977Z,14.30
2022-09-12T21:43:12.520Z,14.20
2022-09-12T21:45:40.555Z,14.20
2022-09-12T21:48:08.119Z,14.20
2022-09-12T21:50:35.085Z,14.20
2022-09-12T21:53:01.998Z,14.20
2022-09-12T21:55:29.290Z,14.20
2022-09-12T21:57:56.562Z,14.20
2022-09-12T22:00:24.051Z,14.20
2022-09-12T22:02:51.103Z,14.10
2022-09-12T22:05:21.423Z,14.10
2022-09-12T22:07:48.394Z,14.10
2022-09-12T22:10:15.351Z,14.10
2022-09-12T22:12:46.047Z,14.10
2022-09-12T22:15:38.952Z,14.10
2022-09-12T22:18:00.855Z,14.00
2022-09-12T22:20:27.776Z,14.00
2022-09-12T22:23:13.250Z,13.90
2022-09-12T22:25:40.381Z,14.00
2022-09-12T22:28:07.309Z,14.00
2022-09-12T22:30:34.231Z,13.90
2022-09-12T22:33:01.290Z,13.90
2022-09-12T22:35:28.220Z,14.00
2022-09-12T22:37:55.059Z,13.90
2022-09-12T22:40:22.145Z,13.90
2022-09-12T22:42:52.387Z,13.90
2022-09-12T22:45:19.965Z,13.90
2022-09-12T22:47:46.993Z,14.00
2022-09-12T22:50:14.422Z,13.90
2022-09-12T22:52:41.777Z,13.90
2022-09-12T22:55:09.825Z,13.90
2022-09-12T22:57:37.490Z,13.80
2022-09-12T23:00:08.062Z,13.80
2022-09-12T23:02:35.022Z,13.70
2022-09-12T23:05:02.834Z,13.60
2022-09-12T23:07:29.758Z,13.60
2022-09-12T23:09:57.000Z,13.60
2022-09-12T23:12:23.978Z,13.60
2022-09-12T23:14:50.869Z,13.60
2022-09-12T23:17:17.895Z,13.60
2022-09-12T23:19:44.768Z,13.60
2022-09-12T23:22:11.676Z,13.60
2022-09-12T23:24:38.896Z,13.60
2022-09-12T23:27:06.164Z,13.60
2022-09-12T23:29:35.489Z,13.50
2022-09-12T23:32:03.863Z,13.50
2022-09-12T23:34:31.057Z,13.50
2022-09-12T23:36:58.029Z,13.50
2022-09-12T23:39:25.049Z,13.50
2022-09-12T23:41:52.269Z,13.50
2022-09-12T23:44:19.236Z,13.40
2022-09-12T23:46:46.207Z,13.40
2022-09-12T23:49:13.251Z,13.40
2022-09-12T23:51:40.236Z,13.30
2022-09-12T23:54:07.171Z,13.30
2022-09-12T23:56:34.232Z,13.30
2022-09-12T23:59:01.224Z,13.30
